Time;durP1;ratioP1;P1;durP2;ratioP2;P2;SDS_P1;SDS_P2;PMS_P1;PMS_P2;Temp;Humidity;BMP_temperature;BMP_pressure;BME280_temperature;BME280_humidity;BME280_pressure;Samples;Min_cycle;Max_cycle;Signal;HPM_P1;HPM_P2
2023/05/12 00:00:15;;;;;;;18.55;12.45;;;12.70;99.90;;;;;;5050586;28;20047;-79
2023/05/12 00:02:41;;;;;;;16.33;11.13;;;12.70;99.90;;;;;;5046322;28;20444;-80
2023/05/12 00:05:07;;;;;;;17.45;11.25;;;12.70;99.90;;;;;;5036651;28;20456;-78
2023/05/12 00:07:33;;;;;;;17.63;11.77;;;12.70;99.90;;;;;;5030810;28;20516;-79
2023/05/12 00:09:59;;;;;;;17.60;10.52;;;12.70;99.90;;;;;;5040522;28;20041;-79
2023/05/12 00:12:24;;;;;;;15.63;10.38;;;12.80;99.90;;;;;;5054846;28;20411;-78
2023/05/12 00:14:50;;;;;;;13.65;8.70;;;12.70;99.90;;;;;;5051528;28;20123;-79
2023/05/12 00:17:16;;;;;;;13.60;9.20;;;12.70;99.90;;;;;;5068262;28;20068;-79
2023/05/12 00:19:42;;;;;;;13.55;9.10;;;12.70;99.90;;;;;;5033920;28;20044;-79
2023/05/12 00:22:12;;;;;;;13.05;8.80;;;12.70;99.90;;;;;;5041978;28;20029;-79
2023/05/12 00:24:38;;;;;;;11.65;8.27;;;12.60;99.90;;;;;;5057666;28;20036;-79
2023/05/12 00:27:05;;;;;;;12.45;8.50;;;12.70;99.90;;;;;;5042226;28;20063;-79
2023/05/12 00:29:32;;;;;;;13.07;8.27;;;12.70;99.90;;;;;;5046786;28;20036;-80
2023/05/12 00:31:57;;;;;;;12.38;8.48;;;12.70;99.90;;;;;;5034707;28;20045;-80
2023/05/12 00:34:23;;;;;;;11.57;7.90;;;12.70;99.90;;;;;;5061819;28;20039;-80
2023/05/12 00:36:49;;;;;;;11.57;7.93;;;12.70;99.90;;;;;;5041808;28;20032;-80
2023/05/12 00:39:15;;;;;;;12.60;7.57;;;12.70;99.90;;;;;;5043826;28;20036;-80
2023/05/12 00:41:41;;;;;;;12.90;8.07;;;12.70;99.90;;;;;;5057278;28;20048;-80
2023/05/12 00:44:07;;;;;;;12.13;7.55;;;12.60;99.90;;;;;;5035027;28;20040;-80
2023/05/12 00:46:32;;;;;;;11.02;7.78;;;12.60;99.90;;;;;;5055736;28;20488;-80
2023/05/12 00:48:58;;;;;;;10.90;6.88;;;12.60;99.90;;;;;;5060147;28;20032;-80
2023/05/12 00:51:25;;;;;;;10.77;7.57;;;12.60;99.90;;;;;;5055520;28;20047;-80
2023/05/12 00:53:51;;;;;;;13.30;7.47;;;12.60;99.90;;;;;;5053460;28;20401;-80
2023/05/12 00:56:18;;;;;;;13.52;7.55;;;12.60;99.90;;;;;;5051026;28;20044;-80
2023/05/12 00:58:44;;;;;;;12.90;7.97;;;12.60;99.90;;;;;;5059831;28;20123;-80
2023/05/12 01:01:10;;;;;;;12.63;7.95;;;12.60;99.90;;;;;;5069464;28;20036;-80
2023/05/12 01:03:36;;;;;;;13.75;9.23;;;12.60;99.90;;;;;;5051789;28;20037;-80
2023/05/12 01:06:16;;;;;;;14.77;9.02;;;12.60;99.90;;;;;;5056207;28;20047;-81
2023/05/12 01:08:42;;;;;;;15.65;9.23;;;12.60;99.90;;;;;;5055088;28;20468;-81
2023/05/12 01:11:08;;;;;;;15.82;9.77;;;12.60;99.90;;;;;;5060567;28;20087;-80
2023/05/12 01:13:34;;;;;;;17.13;10.32;;;12.60;99.90;;;;;;5055116;28;20036;-80
2023/05/12 01:16:02;;;;;;;18.77;11.35;;;12.60;99.90;;;;;;5049544;28;20037;-81
2023/05/12 01:18:29;;;;;;;17.73;11.02;;;12.60;99.90;;;;;;5047650;28;20036;-81
2023/05/12 01:20:56;;;;;;;17.63;10.93;;;12.60;99.90;;;;;;5064911;28;20086;-81
2023/05/12 01:23:28;;;;;;;19.13;11.95;;;12.60;99.90;;;;;;5062253;28;20624;-81
2023/05/12 01:25:54;;;;;;;20.40;12.10;;;12.60;99.90;;;;;;5053956;28;20052;-81
2023/05/12 01:28:21;;;;;;;19.75;12.10;;;12.60;99.90;;;;;;5063018;28;20052;-81
2023/05/12 01:30:47;;;;;;;20.15;12.60;;;12.60;99.90;;;;;;5059518;28;20059;-81
2023/05/12 01:33:13;;;;;;;21.48;13.00;;;12.60;99.90;;;;;;5066075;28;20036;-81
2023/05/12 01:35:39;;;;;;;21.08;13.38;;;12.60;99.90;;;;;;5059311;28;20519;-81
2023/05/12 01:38:04;;;;;;;23.88;13.63;;;12.60;99.90;;;;;;5061204;28;20039;-81
2023/05/12 01:40:30;;;;;;;23.85;14.13;;;12.50;99.90;;;;;;5053986;28;20119;-80
2023/05/12 01:42:55;;;;;;;26.83;15.25;;;12.60;99.90;;;;;;5039742;28;20037;-80
2023/05/12 01:45:21;;;;;;;25.90;15.48;;;12.60;99.90;;;;;;5064398;28;20129;-80
2023/05/12 01:47:46;;;;;;;28.83;15.18;;;12.60;99.90;;;;;;5053806;28;20111;-80
2023/05/12 01:50:12;;;;;;;26.85;15.27;;;12.60;99.90;;;;;;5039395;28;20052;-81
2023/05/12 01:52:37;;;;;;;26.98;16.10;;;12.50;99.90;;;;;;5057566;28;20043;-80
2023/05/12 01:55:03;;;;;;;27.63;16.98;;;12.60;99.90;;;;;;5044173;28;20067;-80
2023/05/12 01:57:29;;;;;;;29.05;16.52;;;12.60;99.90;;;;;;5055166;28;20496;-80
2023/05/12 01:59:55;;;;;;;29.70;16.88;;;12.60;99.90;;;;;;5053612;28;20047;-81
2023/05/12 02:02:20;;;;;;;31.20;18.25;;;12.60;99.90;;;;;;5057369;28;20404;-80
2023/05/12 02:04:46;;;;;;;33.53;19.52;;;12.60;99.90;;;;;;5069059;28;20063;-81
2023/05/12 02:07:11;;;;;;;32.30;18.30;;;12.50;99.90;;;;;;5066000;28;20075;-80
2023/05/12 02:09:37;;;;;;;33.72;19.73;;;12.60;99.90;;;;;;5031312;28;20037;-82
2023/05/12 02:12:03;;;;;;;34.67;19.98;;;12.60;99.90;;;;;;5052785;28;20033;-81
2023/05/12 02:14:29;;;;;;;34.40;19.90;;;12.60;99.90;;;;;;5059327;28;20052;-80
2023/05/12 02:16:55;;;;;;;41.28;20.95;;;12.50;99.90;;;;;;5045295;28;20106;-80
2023/05/12 02:19:20;;;;;;;37.22;21.05;;;12.50;99.90;;;;;;5052091;28;20385;-80
2023/05/12 02:21:47;;;;;;;38.30;22.35;;;12.60;99.90;;;;;;5060412;28;20103;-81
2023/05/12 02:24:13;;;;;;;44.10;22.52;;;12.60;99.90;;;;;;5058558;28;20036;-80
2023/05/12 02:26:38;;;;;;;41.42;23.20;;;12.60;99.90;;;;;;5058727;28;20086;-81
2023/05/12 02:29:04;;;;;;;45.50;22.23;;;12.50;99.90;;;;;;5054745;28;20052;-81
2023/05/12 02:31:30;;;;;;;41.92;22.40;;;12.60;99.90;;;;;;5056653;28;20435;-82
2023/05/12 02:33:55;;;;;;;42.28;23.75;;;12.60;99.90;;;;;;5054675;28;20036;-81
2023/05/12 02:36:21;;;;;;;41.40;22.85;;;12.60;99.90;;;;;;5054722;28;20044;-81
2023/05/12 02:38:47;;;;;;;44.38;24.08;;;12.60;99.90;;;;;;5058377;28;20029;-81
2023/05/12 02:41:12;;;;;;;44.72;24.17;;;12.60;99.90;;;;;;5058432;28;20408;-81
2023/05/12 02:43:38;;;;;;;40.38;23.02;;;12.60;99.90;;;;;;5064038;28;20051;-81
2023/05/12 02:46:04;;;;;;;43.17;24.15;;;12.60;99.90;;;;;;5048611;28;20048;-81
2023/05/12 02:48:30;;;;;;;42.78;24.25;;;12.50;99.90;;;;;;5050350;28;20043;-81
2023/05/12 02:50:56;;;;;;;44.47;24.55;;;12.60;99.90;;;;;;5054751;28;20043;-81
2023/05/12 02:53:21;;;;;;;46.13;25.02;;;12.60;99.90;;;;;;5058003;28;20047;-81
2023/05/12 02:55:47;;;;;;;44.45;24.65;;;12.70;99.90;;;;;;5060584;28;20032;-81
2023/05/12 02:58:13;;;;;;;40.80;23.70;;;12.60;99.90;;;;;;5066942;28;20048;-82
2023/05/12 03:00:38;;;;;;;43.30;24.85;;;12.60;99.90;;;;;;5062916;28;20377;-81
2023/05/12 03:03:04;;;;;;;46.60;24.15;;;13.40;99.90;;;;;;5039226;28;20040;-81
2023/05/12 03:05:30;;;;;;;47.25;24.42;;;12.60;99.90;;;;;;5064283;28;20056;-81
2023/05/12 03:07:56;;;;;;;41.90;24.60;;;12.70;99.90;;;;;;5055835;28;20069;-81
2023/05/12 03:10:21;;;;;;;42.10;23.80;;;12.60;99.90;;;;;;5054579;28;20128;-81
2023/05/12 03:12:47;;;;;;;44.30;24.35;;;12.70;99.90;;;;;;5038668;28;20040;-81
2023/05/12 03:15:12;;;;;;;41.55;23.20;;;12.70;99.90;;;;;;5057627;28;20518;-81
2023/05/12 03:17:38;;;;;;;41.38;24.55;;;12.60;99.90;;;;;;5067146;28;20462;-81
2023/05/12 03:20:04;;;;;;;47.42;25.58;;;12.70;99.90;;;;;;5057843;28;20036;-81
2023/05/12 03:22:30;;;;;;;43.20;24.65;;;12.60;99.90;;;;;;5049290;28;20470;-81
2023/05/12 03:24:56;;;;;;;46.55;24.17;;;12.70;99.90;;;;;;5058797;28;20040;-81
2023/05/12 03:27:21;;;;;;;42.30;24.25;;;12.60;99.90;;;;;;5065545;28;20040;-81
2023/05/12 03:29:47;;;;;;;38.95;23.50;;;12.70;99.90;;;;;;5061960;28;20045;-81
2023/05/12 03:32:12;;;;;;;45.00;25.90;;;12.70;99.90;;;;;;5064450;28;20076;-81
2023/05/12 03:34:38;;;;;;;46.70;25.67;;;12.70;99.90;;;;;;5063289;28;20106;-81
2023/05/12 03:37:04;;;;;;;50.42;28.20;;;12.70;99.90;;;;;;5051631;28;20032;-81
2023/05/12 03:39:29;;;;;;;46.67;25.67;;;12.60;99.90;;;;;;5061440;28;20044;-81
2023/05/12 03:41:55;;;;;;;47.17;26.60;;;12.70;99.90;;;;;;5065181;28;20040;-81
2023/05/12 03:44:20;;;;;;;44.95;26.13;;;12.70;99.90;;;;;;5043841;28;20090;-81
2023/05/12 03:46:46;;;;;;;51.70;26.60;;;12.70;99.90;;;;;;5068304;28;20045;-81
2023/05/12 03:49:11;;;;;;;48.95;26.40;;;12.70;99.90;;;;;;5041785;28;20044;-82
2023/05/12 03:51:37;;;;;;;50.10;27.02;;;12.70;99.90;;;;;;5067055;28;20044;-81
2023/05/12 03:54:03;;;;;;;54.60;27.42;;;12.70;99.90;;;;;;5065060;28;20032;-80
2023/05/12 03:56:28;;;;;;;48.10;27.35;;;12.70;99.90;;;;;;5070139;28;20072;-81
2023/05/12 03:58:54;;;;;;;53.22;28.25;;;12.70;99.90;;;;;;5062571;28;20040;-81
2023/05/12 04:01:19;;;;;;;53.97;28.60;;;12.70;99.90;;;;;;5056254;28;20052;-81
2023/05/12 04:03:45;;;;;;;54.83;29.15;;;12.70;99.90;;;;;;5055750;28;20035;-81
2023/05/12 04:06:11;;;;;;;49.67;28.10;;;12.70;99.90;;;;;;5039934;28;20466;-81
2023/05/12 04:08:37;;;;;;;52.15;29.00;;;12.70;99.90;;;;;;5056333;28;20415;-81
2023/05/12 04:11:03;;;;;;;50.55;28.08;;;12.70;99.90;;;;;;5040102;28;20408;-81
2023/05/12 04:13:30;;;;;;;53.45;29.30;;;12.70;99.90;;;;;;5061114;28;20535;-81
2023/05/12 04:15:57;;;;;;;54.80;28.58;;;12.70;99.90;;;;;;5055180;28;20089;-82
2023/05/12 04:18:26;;;;;;;51.97;29.30;;;12.70;99.90;;;;;;5062046;28;20043;-82
2023/05/12 04:20:53;;;;;;;54.78;29.20;;;12.70;99.90;;;;;;5056487;28;20137;-81
2023/05/12 04:23:18;;;;;;;50.72;29.55;;;12.80;99.90;;;;;;5056617;28;20615;-81
2023/05/12 04:25:44;;;;;;;52.78;28.17;;;12.80;99.90;;;;;;5038146;28;20075;-81
2023/05/12 04:28:10;;;;;;;56.20;29.48;;;12.80;99.90;;;;;;5055562;28;20036;-81
2023/05/12 04:30:37;;;;;;;50.17;27.45;;;12.80;99.90;;;;;;5061284;28;20094;-81
2023/05/12 04:33:03;;;;;;;53.13;28.92;;;12.70;99.90;;;;;;5050808;28;20067;-81
2023/05/12 04:35:29;;;;;;;50.30;28.25;;;12.80;99.90;;;;;;5051854;28;20067;-81
2023/05/12 04:37:54;;;;;;;56.03;29.45;;;12.80;99.90;;;;;;5052463;28;20504;-81
2023/05/12 04:40:20;;;;;;;51.15;28.48;;;12.80;99.90;;;;;;5059064;28;20039;-81
2023/05/12 04:42:46;;;;;;;52.03;28.58;;;12.80;99.90;;;;;;5054714;28;20040;-81
2023/05/12 04:45:16;;;;;;;53.38;28.67;;;12.80;99.90;;;;;;5057906;28;20054;-81
2023/05/12 04:47:53;;;;;;;51.35;28.70;;;12.90;99.90;;;;;;5061777;28;20470;-81
2023/05/12 04:50:18;;;;;;;48.90;28.08;;;12.90;99.90;;;;;;5054532;28;20044;-81
2023/05/12 04:52:44;;;;;;;53.45;29.73;;;12.90;99.90;;;;;;5053500;28;20498;-81
2023/05/12 04:55:10;;;;;;;50.75;29.13;;;12.90;99.90;;;;;;5062258;28;20073;-81
2023/05/12 04:57:35;;;;;;;53.28;28.63;;;12.90;99.90;;;;;;5054653;28;20107;-81
2023/05/12 05:00:04;;;;;;;52.15;27.95;;;12.90;99.90;;;;;;5048072;28;20408;-81
2023/05/12 05:02:30;;;;;;;47.60;27.98;;;12.90;99.90;;;;;;5035262;28;20083;-81
2023/05/12 05:04:56;;;;;;;50.85;29.15;;;13.00;99.90;;;;;;5064560;28;20067;-81
2023/05/12 05:07:21;;;;;;;49.38;28.77;;;13.00;99.90;;;;;;5060324;28;20431;-81
2023/05/12 05:09:47;;;;;;;45.17;27.13;;;13.00;99.90;;;;;;5069372;28;20044;-81
2023/05/12 05:12:12;;;;;;;47.47;27.52;;;13.00;99.90;;;;;;5060639;28;20092;-81
2023/05/12 05:14:38;;;;;;;45.63;28.90;;;13.10;99.90;;;;;;5055569;28;20097;-81
2023/05/12 05:17:06;;;;;;;47.75;28.55;;;13.10;99.90;;;;;;5063541;28;20036;-81
2023/05/12 05:19:32;;;;;;;44.53;26.88;;;13.10;99.90;;;;;;5063386;28;20042;-81
2023/05/12 05:21:58;;;;;;;47.40;27.42;;;13.10;99.90;;;;;;5062581;28;20037;-81
2023/05/12 05:24:24;;;;;;;48.10;27.75;;;13.20;99.90;;;;;;5064944;28;20428;-81
2023/05/12 05:26:49;;;;;;;47.28;26.30;;;13.20;99.90;;;;;;5065384;28;20048;-81
2023/05/12 05:29:15;;;;;;;41.55;25.58;;;13.20;99.90;;;;;;5055036;28;20047;-81
2023/05/12 05:31:40;;;;;;;42.95;26.65;;;13.30;99.90;;;;;;5056263;28;20068;-81
2023/05/12 05:34:06;;;;;;;45.65;27.15;;;13.30;99.90;;;;;;5055441;28;20032;-81
2023/05/12 05:36:34;;;;;;;44.05;26.05;;;13.30;99.90;;;;;;5051513;28;20044;-80
2023/05/12 05:39:00;;;;;;;42.97;26.67;;;13.50;99.90;;;;;;5057606;28;20115;-81
2023/05/12 05:41:26;;;;;;;43.13;25.90;;;13.40;99.90;;;;;;5056923;28;20492;-81
2023/05/12 05:43:51;;;;;;;42.60;26.27;;;13.40;99.90;;;;;;5062259;28;20103;-81
2023/05/12 05:46:17;;;;;;;42.70;27.20;;;13.40;99.90;;;;;;5064825;28;20044;-81
2023/05/12 05:48:42;;;;;;;45.63;26.23;;;13.40;99.90;;;;;;5066460;28;20037;-81
2023/05/12 05:51:10;;;;;;;39.70;26.10;;;13.40;99.90;;;;;;5080130;28;20178;-81
2023/05/12 05:53:35;;;;;;;42.22;26.50;;;13.50;99.90;;;;;;5078515;28;20056;-81
2023/05/12 05:56:01;;;;;;;44.72;25.98;;;13.50;99.90;;;;;;5073202;28;20032;-81
2023/05/12 05:58:27;;;;;;;43.13;26.70;;;13.60;99.90;;;;;;5064240;28;20238;-81
2023/05/12 06:00:52;;;;;;;40.72;25.05;;;13.70;99.90;;;;;;5067117;28;20044;-81
2023/05/12 06:03:18;;;;;;;45.15;26.13;;;13.60;99.90;;;;;;5066136;28;20048;-81
2023/05/12 06:05:44;;;;;;;40.38;25.70;;;13.60;99.90;;;;;;5063480;28;20523;-81
2023/05/12 06:08:12;;;;;;;42.17;24.52;;;13.60;99.90;;;;;;5053889;28;20044;-81
2023/05/12 06:10:38;;;;;;;39.78;26.27;;;13.70;99.90;;;;;;5065750;28;20182;-81
2023/05/12 06:13:03;;;;;;;41.40;25.70;;;13.70;99.90;;;;;;5062566;28;20048;-80
2023/05/12 06:15:29;;;;;;;39.90;25.27;;;13.60;99.90;;;;;;5080294;28;20484;-81
2023/05/12 06:17:55;;;;;;;37.90;24.52;;;13.70;99.90;;;;;;5068932;28;20064;-81
2023/05/12 06:20:22;;;;;;;38.28;24.70;;;13.70;99.90;;;;;;5064273;28;20416;-80
2023/05/12 06:22:47;;;;;;;38.35;24.20;;;13.80;99.90;;;;;;5059522;28;20045;-80
2023/05/12 06:25:13;;;;;;;38.78;24.50;;;13.80;99.90;;;;;;5057665;28;20288;-80
2023/05/12 06:27:39;;;;;;;41.15;25.45;;;13.80;99.90;;;;;;5050753;28;20063;-80
2023/05/12 06:30:05;;;;;;;37.78;24.63;;;13.80;99.90;;;;;;5076879;28;20076;-80
2023/05/12 06:32:31;;;;;;;40.80;25.67;;;13.80;99.90;;;;;;5060455;28;20041;-80
2023/05/12 06:34:56;;;;;;;36.90;24.27;;;13.80;99.90;;;;;;5050891;28;20042;-80
2023/05/12 06:37:24;;;;;;;37.50;24.13;;;13.80;99.90;;;;;;5056711;28;20047;-80
2023/05/12 06:39:49;;;;;;;38.50;24.10;;;13.80;99.90;;;;;;5073440;28;20421;-79
2023/05/12 06:42:15;;;;;;;38.03;23.85;;;13.80;99.90;;;;;;5067933;28;20037;-79
2023/05/12 06:44:41;;;;;;;38.05;23.70;;;13.80;99.90;;;;;;5064818;28;20135;-79
2023/05/12 06:47:06;;;;;;;39.55;25.10;;;13.80;99.90;;;;;;5059864;28;20040;-79
2023/05/12 06:49:34;;;;;;;40.50;25.23;;;13.90;99.90;;;;;;5042357;28;20093;-79
2023/05/12 06:52:00;;;;;;;38.72;24.38;;;13.90;99.90;;;;;;5036645;28;20099;-79
2023/05/12 06:54:25;;;;;;;39.08;22.33;;;13.90;99.90;;;;;;5059558;28;20033;-79
2023/05/12 06:56:51;;;;;;;40.40;24.52;;;13.90;99.90;;;;;;5077262;28;20079;-79
2023/05/12 06:59:17;;;;;;;35.92;23.13;;;14.00;99.90;;;;;;5073046;28;20041;-79
2023/05/12 07:01:42;;;;;;;35.00;23.38;;;14.10;99.90;;;;;;5064291;28;20036;-79
2023/05/12 07:04:08;;;;;;;37.35;21.52;;;14.10;99.90;;;;;;5060815;28;20445;-80
2023/05/12 07:06:33;;;;;;;35.67;22.63;;;14.10;99.90;;;;;;5061812;28;20500;-79
2023/05/12 07:08:59;;;;;;;34.05;22.48;;;14.20;99.90;;;;;;5059304;28;20040;-79
2023/05/12 07:11:25;;;;;;;38.88;23.00;;;14.20;99.90;;;;;;5054047;28;20080;-77
2023/05/12 07:13:51;;;;;;;38.92;23.20;;;14.30;99.90;;;;;;5070228;28;20040;-78
2023/05/12 07:16:18;;;;;;;35.95;22.70;;;14.40;99.90;;;;;;5056807;28;20407;-77
2023/05/12 07:18:44;;;;;;;35.03;22.88;;;14.50;99.90;;;;;;5056025;28;20083;-76
2023/05/12 07:21:11;;;;;;;36.17;23.20;;;14.50;99.90;;;;;;5055648;28;20041;-77
2023/05/12 07:23:36;;;;;;;35.97;23.70;;;14.50;99.90;;;;;;5052486;28;20044;-77
2023/05/12 07:26:03;;;;;;;38.30;23.58;;;14.60;99.90;;;;;;5048222;28;20538;-77
2023/05/12 07:28:36;;;;;;;33.65;22.63;;;14.70;99.90;;;;;;5054820;28;20040;-76
2023/05/12 07:31:02;;;;;;;34.70;22.83;;;14.70;99.90;;;;;;5050761;28;20500;-76
2023/05/12 07:33:29;;;;;;;38.38;24.10;;;14.80;99.90;;;;;;5053691;28;20083;-78
2023/05/12 07:35:55;;;;;;;33.10;21.67;;;14.80;99.90;;;;;;5051107;28;20040;-76
2023/05/12 07:38:21;;;;;;;38.22;23.80;;;14.80;99.90;;;;;;5048968;28;20041;-76
2023/05/12 07:40:46;;;;;;;35.85;22.90;;;15.30;99.90;;;;;;5071855;28;20043;-75
2023/05/12 07:43:12;;;;;;;37.17;24.00;;;15.00;99.90;;;;;;5071822;28;20032;-75
2023/05/12 07:45:37;;;;;;;33.65;23.17;;;15.10;99.90;;;;;;5070132;28;20107;-75
2023/05/12 07:48:03;;;;;;;31.95;21.48;;;15.20;99.90;;;;;;5069545;28;20569;-75
2023/05/12 07:50:29;;;;;;;35.70;24.27;;;15.30;99.90;;;;;;5069158;28;20035;-75
2023/05/12 07:52:54;;;;;;;34.67;22.50;;;15.30;99.90;;;;;;5056160;28;20086;-76
2023/05/12 07:55:21;;;;;;;33.78;22.38;;;15.30;99.90;;;;;;5068078;28;20539;-75
2023/05/12 07:57:48;;;;;;;32.75;22.02;;;15.40;99.90;;;;;;5052098;28;20033;-76
2023/05/12 08:00:14;;;;;;;34.90;21.88;;;15.60;99.90;;;;;;5046493;28;20641;-76
2023/05/12 08:02:40;;;;;;;34.95;22.67;;;15.40;99.90;;;;;;5041132;28;20037;-75
2023/05/12 08:05:10;;;;;;;31.45;22.08;;;15.40;99.90;;;;;;5044882;28;20052;-75
2023/05/12 08:07:37;;;;;;;33.78;23.23;;;15.50;99.90;;;;;;5058275;28;20055;-75
2023/05/12 08:10:05;;;;;;;33.45;22.45;;;15.50;99.90;;;;;;5064181;28;20405;-75
2023/05/12 08:12:32;;;;;;;33.35;22.65;;;15.50;99.90;;;;;;5051424;28;20110;-75
2023/05/12 08:14:58;;;;;;;34.95;23.13;;;15.50;99.90;;;;;;5043921;28;20500;-74
2023/05/12 08:17:23;;;;;;;31.27;22.38;;;15.50;99.90;;;;;;5056256;28;20111;-75
2023/05/12 08:19:49;;;;;;;31.42;21.70;;;15.50;99.90;;;;;;5071974;28;20134;-75
2023/05/12 08:22:15;;;;;;;32.65;21.88;;;15.50;99.90;;;;;;5068037;28;20036;-75
2023/05/12 08:24:41;;;;;;;31.20;21.90;;;15.60;99.90;;;;;;5057783;28;20094;-77
2023/05/12 08:27:07;;;;;;;30.30;21.02;;;15.60;99.90;;;;;;5064442;28;20086;-76
2023/05/12 08:29:33;;;;;;;32.55;22.30;;;15.80;99.90;;;;;;5071283;28;20040;-75
2023/05/12 08:31:58;;;;;;;31.90;21.85;;;15.70;99.90;;;;;;5030535;28;20053;-76
2023/05/12 08:34:24;;;;;;;33.55;22.40;;;15.70;99.90;;;;;;5069947;28;20094;-76
2023/05/12 08:36:53;;;;;;;35.45;23.10;;;15.70;99.90;;;;;;5068413;28;20032;-76
2023/05/12 08:39:19;;;;;;;34.15;22.65;;;15.80;99.90;;;;;;5049660;28;20032;-76
2023/05/12 08:41:54;;;;;;;34.72;23.65;;;15.90;99.90;;;;;;5049676;28;20425;-76
2023/05/12 08:44:21;;;;;;;31.83;21.88;;;16.00;99.90;;;;;;5065076;28;20309;-75
2023/05/12 08:46:47;;;;;;;35.30;22.98;;;16.10;99.90;;;;;;5048753;28;20048;-75
2023/05/12 08:49:16;;;;;;;32.03;21.88;;;16.10;99.90;;;;;;5042034;28;20044;-75
2023/05/12 08:51:43;;;;;;;30.15;21.80;;;16.20;99.90;;;;;;5069887;28;20393;-75
2023/05/12 08:54:11;;;;;;;32.92;22.88;;;16.30;99.90;;;;;;5061938;28;20072;-75
2023/05/12 08:56:38;;;;;;;32.70;22.30;;;16.30;99.90;;;;;;5065025;28;20040;-75
2023/05/12 08:59:07;;;;;;;30.38;21.90;;;16.40;99.90;;;;;;5070046;28;20210;-75
2023/05/12 09:01:36;;;;;;;33.80;22.88;;;16.50;99.90;;;;;;5062678;28;20044;-75
2023/05/12 09:04:04;;;;;;;34.35;20.98;;;16.50;99.90;;;;;;5053556;28;20098;-75
2023/05/12 09:06:31;;;;;;;31.55;21.65;;;16.60;99.90;;;;;;5070868;28;20048;-75
2023/05/12 09:08:57;;;;;;;31.23;21.77;;;16.70;99.90;;;;;;5071293;28;20041;-75
2023/05/12 09:11:23;;;;;;;30.35;21.08;;;16.80;99.90;;;;;;5063921;28;20044;-75
2023/05/12 09:14:03;;;;;;;30.88;21.40;;;17.00;99.90;;;;;;5069949;28;20029;-75
2023/05/12 09:16:33;;;;;;;31.77;21.75;;;17.20;99.90;;;;;;5070045;28;20051;-75
2023/05/12 09:19:00;;;;;;;30.58;21.58;;;17.20;99.90;;;;;;5074681;22;20024;-78
2023/05/12 09:21:27;;;;;;;28.77;21.25;;;17.30;99.90;;;;;;5035005;28;20121;-81
2023/05/12 09:24:04;;;;;;;28.50;20.40;;;18.20;99.90;;;;;;5048061;28;20040;-80
2023/05/12 09:26:54;;;;;;;29.33;21.60;;;17.40;99.90;;;;;;5045138;28;20040;-80
2023/05/12 09:29:49;;;;;;;29.23;20.80;;;17.40;99.90;;;;;;5053830;28;20040;-80
2023/05/12 09:32:15;;;;;;;28.20;21.08;;;17.40;99.90;;;;;;5029549;28;20045;-80
2023/05/12 09:34:45;;;;;;;27.85;20.25;;;17.70;99.90;;;;;;5001074;28;20276;-80
2023/05/12 09:37:12;;;;;;;28.52;21.23;;;17.70;99.90;;;;;;5029325;28;20473;-79
2023/05/12 09:39:39;;;;;;;28.55;21.08;;;17.60;99.90;;;;;;5025809;28;20043;-80
2023/05/12 09:42:13;;;;;;;30.08;20.38;;;17.60;99.90;;;;;;5016230;28;20029;-82
2023/05/12 09:44:40;;;;;;;27.10;20.83;;;17.60;99.90;;;;;;5015513;28;20032;-80
2023/05/12 09:47:09;;;;;;;24.85;19.52;;;17.60;99.90;;;;;;5012080;28;20040;-80
2023/05/12 09:49:35;;;;;;;27.67;19.35;;;17.80;99.90;;;;;;5026941;28;20033;-82
2023/05/12 09:52:03;;;;;;;24.52;17.95;;;17.80;99.90;;;;;;5001880;28;20120;-82
2023/05/12 09:54:33;;;;;;;23.85;18.15;;;18.00;99.90;;;;;;5033923;28;20046;-84
2023/05/12 09:57:02;;;;;;;23.52;17.75;;;18.30;99.90;;;;;;5017860;28;20037;-79
2023/05/12 09:59:37;;;;;;;24.45;17.92;;;18.60;99.90;;;;;;5033902;28;20451;-80
2023/05/12 10:02:08;;;;;;;23.67;17.63;;;18.70;99.90;;;;;;5020954;28;20053;-80
2023/05/12 10:04:52;;;;;;;21.10;16.05;;;18.90;99.90;;;;;;5013726;28;20044;-81
2023/05/12 10:07:25;;;;;;;20.05;16.05;;;19.10;99.90;;;;;;5016724;28;20040;-80
2023/05/12 10:09:54;;;;;;;20.13;15.73;;;19.40;99.90;;;;;;5021743;28;20052;-80
2023/05/12 10:12:19;;;;;;;19.15;15.43;;;19.20;99.90;;;;;;5057298;28;20451;-80
2023/05/12 10:14:46;;;;;;;22.15;15.45;;;19.40;99.90;;;;;;5041240;28;20037;-80
2023/05/12 10:17:12;;;;;;;19.35;16.02;;;19.80;99.90;;;;;;5016075;28;20128;-81
2023/05/12 10:19:40;;;;;;;18.30;16.05;;;19.90;99.90;;;;;;5022392;28;20051;-80
2023/05/12 10:22:10;;;;;;;19.67;16.27;;;20.10;99.90;;;;;;5035154;28;20080;-80
2023/05/12 10:24:36;;;;;;;18.75;14.70;;;20.90;99.90;;;;;;5050203;28;20464;-80
2023/05/12 10:27:05;;;;;;;16.80;13.10;;;21.10;99.90;;;;;;5024490;28;20068;-81
2023/05/12 10:29:31;;;;;;;14.65;12.35;;;20.70;99.90;;;;;;5027273;28;20420;-80
2023/05/12 10:32:01;;;;;;;13.80;11.70;;;20.70;99.90;;;;;;5014856;28;20041;-80
2023/05/12 10:34:33;;;;;;;12.93;11.32;;;20.90;99.90;;;;;;5026851;28;20492;-80
2023/05/12 10:36:59;;;;;;;11.07;9.60;;;21.00;99.90;;;;;;5018343;28;20115;-79
2023/05/12 10:39:31;;;;;;;11.98;8.20;;;21.10;99.90;;;;;;5033176;28;20124;-80
2023/05/12 10:42:07;;;;;;;10.32;8.60;;;21.30;99.90;;;;;;5013774;28;20124;-79
2023/05/12 10:44:33;;;;;;;12.75;9.68;;;21.40;99.90;;;;;;5023862;28;20052;-82
2023/05/12 10:46:59;;;;;;;12.43;10.95;;;21.30;99.90;;;;;;5016838;28;20123;-81
2023/05/12 10:49:33;;;;;;;11.05;9.38;;;21.00;99.90;;;;;;5015736;28;20071;-79
2023/05/12 10:51:59;;;;;;;8.40;7.30;;;21.30;99.90;;;;;;5033374;28;20122;-82
2023/05/12 10:54:25;;;;;;;8.85;7.93;;;21.40;99.90;;;;;;5031353;28;20103;-79
2023/05/12 10:56:51;;;;;;;10.00;8.93;;;21.60;99.90;;;;;;5035833;28;20041;-80
2023/05/12 10:59:22;;;;;;;11.27;8.80;;;21.90;99.90;;;;;;5033918;28;20036;-80
2023/05/12 11:02:02;;;;;;;13.00;9.10;;;21.70;99.90;;;;;;5018983;28;20098;-83
2023/05/12 11:04:41;;;;;;;9.93;8.80;;;21.80;99.90;;;;;;5028397;28;20052;-79
2023/05/12 11:07:11;;;;;;;9.85;8.85;;;21.50;99.90;;;;;;5023165;28;20123;-81
2023/05/12 11:09:39;;;;;;;11.15;9.05;;;21.30;99.90;;;;;;5032949;28;20045;-81
2023/05/12 11:12:06;;;;;;;9.27;8.30;;;21.10;99.90;;;;;;5028876;28;20694;-80
2023/05/12 11:14:42;;;;;;;9.23;8.25;;;21.00;99.90;;;;;;5025702;28;20416;-80
2023/05/12 11:17:08;;;;;;;11.45;8.43;;;20.90;99.90;;;;;;5017533;28;20037;-82
2023/05/12 11:19:34;;;;;;;10.25;7.95;;;21.00;99.90;;;;;;5044172;28;20044;-80
2023/05/12 11:22:08;;;;;;;8.07;7.07;;;21.10;99.90;;;;;;5036109;28;20075;-79
2023/05/12 11:24:39;;;;;;;8.52;7.63;;;21.80;99.90;;;;;;5050459;28;20043;-79
2023/05/12 11:27:06;;;;;;;8.85;7.93;;;21.50;99.90;;;;;;5020672;28;20048;-80
2023/05/12 11:29:32;;;;;;;9.65;7.47;;;22.00;99.90;;;;;;5021629;28;20182;-80
2023/05/12 11:31:59;;;;;;;8.35;6.90;;;22.20;99.90;;;;;;5012310;28;20245;-79
2023/05/12 11:34:26;;;;;;;9.13;6.47;;;22.40;99.90;;;;;;5021688;28;20491;-80
2023/05/12 11:36:54;;;;;;;7.05;5.75;;;22.70;99.90;;;;;;5036925;28;20048;-80
2023/05/12 11:39:22;;;;;;;6.57;5.88;;;22.90;99.90;;;;;;5053295;28;20121;-82
2023/05/12 11:41:49;;;;;;;7.60;6.45;;;23.20;99.90;;;;;;5027726;28;20051;-79
2023/05/12 11:44:23;;;;;;;8.88;6.13;;;23.20;99.90;;;;;;5043776;28;20396;-80
2023/05/12 11:47:00;;;;;;;7.30;6.13;;;23.30;99.90;;;;;;5016458;28;20055;-80
2023/05/12 11:49:29;;;;;;;7.28;5.95;;;23.30;99.90;;;;;;5030744;28;20053;-79
2023/05/12 11:51:57;;;;;;;6.57;5.32;;;23.30;99.90;;;;;;5021966;28;20068;-79
2023/05/12 11:54:24;;;;;;;7.28;5.38;;;23.30;99.90;;;;;;5029012;28;20122;-80
2023/05/12 11:56:54;;;;;;;7.13;5.50;;;23.30;99.90;;;;;;5031104;28;20037;-80
2023/05/12 11:59:33;;;;;;;7.25;6.13;;;23.50;99.90;;;;;;5037345;28;20045;-80
2023/05/12 12:02:01;;;;;;;6.03;5.25;;;23.80;99.90;;;;;;5043753;28;20163;-80
2023/05/12 12:04:39;;;;;;;6.38;5.10;;;23.70;99.90;;;;;;5048731;28;20037;-81
2023/05/12 12:07:06;;;;;;;7.22;5.10;;;23.90;99.90;;;;;;5018129;28;20040;-80
2023/05/12 12:09:39;;;;;;;6.75;5.10;;;24.00;99.90;;;;;;5030637;28;20409;-80
2023/05/12 12:12:06;;;;;;;6.25;4.95;;;24.10;99.90;;;;;;5013096;28;20033;-80
2023/05/12 12:14:33;;;;;;;7.40;5.13;;;24.30;99.90;;;;;;5023263;28;20242;-80
2023/05/12 12:16:59;;;;;;;8.65;4.80;;;24.40;99.90;;;;;;5042059;28;20124;-81
2023/05/12 12:19:26;;;;;;;7.43;5.15;;;24.30;99.90;;;;;;5053424;28;20060;-80
2023/05/12 12:21:52;;;;;;;5.80;5.20;;;24.30;99.90;;;;;;5052984;28;20041;-80
2023/05/12 12:24:18;;;;;;;7.72;5.28;;;24.40;99.90;;;;;;5019172;28;20516;-80
2023/05/12 12:26:44;;;;;;;5.38;4.70;;;24.50;99.90;;;;;;5024539;28;20037;-80
2023/05/12 12:29:09;;;;;;;5.13;3.88;;;24.70;99.90;;;;;;5025857;28;20052;-79